createdAt,value
2023-02-09T00:01:38.250Z,56.27
2023-02-09T00:04:13.811Z,55.46
2023-02-09T00:06:41.552Z,54.87
2023-02-09T00:09:20.409Z,57.28
2023-02-09T00:12:08.680Z,58.56
2023-02-09T00:14:40.654Z,57.98
2023-02-09T00:17:11.049Z,56.73
2023-02-09T00:19:38.810Z,57.63
2023-02-09T00:22:06.673Z,57.02
2023-02-09T00:24:38.216Z,57.28
2023-02-09T00:27:05.996Z,56.68
2023-02-09T00:29:33.979Z,56.75
2023-02-09T00:32:03.580Z,56.46
2023-02-09T00:34:31.375Z,58.41
2023-02-09T00:36:59.129Z,57.31
2023-02-09T00:39:28.883Z,56.89
2023-02-09T00:42:08.609Z,58.25
2023-02-09T00:44:46.082Z,59.29
2023-02-09T00:47:17.253Z,59.35
2023-02-09T00:49:49.850Z,60.58
2023-02-09T00:52:17.631Z,61.02
2023-02-09T00:54:48.443Z,61.96
2023-02-09T00:57:19.196Z,61.36
2023-02-09T00:59:47.029Z,62.75
2023-02-09T01:02:19.563Z,61.27
2023-02-09T01:04:49.939Z,61.14
2023-02-09T01:07:17.836Z,60.46
2023-02-09T01:09:52.771Z,62.25
2023-02-09T01:12:20.649Z,61.87
2023-02-09T01:14:53.433Z,63.95
2023-02-09T01:17:24.703Z,63.32
2023-02-09T01:19:53.613Z,60.81
2023-02-09T01:22:21.837Z,59.09
2023-02-09T01:24:59.715Z,58.90
2023-02-09T01:27:30.118Z,61.30
2023-02-09T01:30:01.307Z,59.58
2023-02-09T01:32:30.914Z,59.24
2023-02-09T01:35:00.980Z,59.77
2023-02-09T01:37:28.983Z,58.97
2023-02-09T01:39:58.190Z,60.56
2023-02-09T01:42:27.552Z,60.88
2023-02-09T01:45:07.440Z,59.72
2023-02-09T01:47:43.499Z,58.94
2023-02-09T01:50:14.535Z,59.45
2023-02-09T01:52:43.745Z,61.23
2023-02-09T01:55:18.975Z,61.01
2023-02-09T01:57:50.925Z,62.60
2023-02-09T02:00:20.960Z,61.35
2023-02-09T02:02:56.640Z,61.35
2023-02-09T02:05:28.005Z,60.35
2023-02-09T02:07:59.671Z,61.69
2023-02-09T02:10:30.820Z,59.21
2023-02-09T02:13:11.106Z,57.89
2023-02-09T02:15:44.402Z,59.52
2023-02-09T02:18:23.184Z,59.77
2023-02-09T02:21:17.285Z,58.49
2023-02-09T02:23:49.408Z,59.58
2023-02-09T02:26:33.776Z,59.86
2023-02-09T02:29:25.563Z,59.56
2023-02-09T02:32:16.794Z,58.16
2023-02-09T02:34:47.502Z,58.18
2023-02-09T02:37:25.818Z,57.86
2023-02-09T02:40:02.767Z,60.71
2023-02-09T02:42:51.985Z,58.41
2023-02-09T02:45:31.205Z,59.76
2023-02-09T02:48:12.156Z,59.33
2023-02-09T02:50:47.065Z,60.07
2023-02-09T02:53:19.739Z,60.53
2023-02-09T02:55:48.420Z,58.57
2023-02-09T02:58:17.528Z,58.37
2023-02-09T03:00:48.468Z,58.22
2023-02-09T03:03:23.030Z,57.31
2023-02-09T03:05:51.470Z,58.16
2023-02-09T03:08:25.432Z,59.65
2023-02-09T03:10:55.393Z,59.78
2023-02-09T03:13:35.174Z,59.61
2023-02-09T03:21:46.664Z,59.71
2023-02-09T03:24:23.994Z,60.09
2023-02-09T03:27:03.025Z,60.07
2023-02-09T03:29:33.193Z,61.77
2023-02-09T03:32:05.886Z,60.51
2023-02-09T03:34:36.172Z,60.57
2023-02-09T03:37:04.011Z,60.97
2023-02-09T03:39:37.275Z,60.92
2023-02-09T03:42:05.479Z,61.94
2023-02-09T03:44:40.289Z,62.15
2023-02-09T03:47:10.406Z,63.14
2023-02-09T03:49:42.287Z,62.67
2023-02-09T03:52:12.288Z,62.97
2023-02-09T03:54:44.990Z,62.40
2023-02-09T03:57:13.214Z,62.32
2023-02-09T03:59:41.357Z,62.94
2023-02-09T04:02:12.979Z,63.27
2023-02-09T04:04:52.518Z,63.31
2023-02-09T04:07:22.594Z,63.38
2023-02-09T04:09:52.570Z,63.61
2023-02-09T04:12:20.420Z,63.83
2023-02-09T04:14:48.178Z,64.45
2023-02-09T04:17:22.041Z,63.76
2023-02-09T04:19:51.287Z,63.32
2023-02-09T04:22:22.808Z,62.78
2023-02-09T04:24:53.846Z,63.02
2023-02-09T04:27:31.964Z,62.35
2023-02-09T04:30:03.242Z,62.68
2023-02-09T04:32:35.592Z,60.65
2023-02-09T04:35:07.549Z,63.84
2023-02-09T04:37:35.308Z,62.52
2023-02-09T04:40:03.197Z,61.95
2023-02-09T04:42:32.309Z,62.24
2023-02-09T04:45:06.293Z,61.08
2023-02-09T04:47:35.518Z,62.05
2023-02-09T04:50:05.093Z,61.93
2023-02-09T04:52:35.707Z,60.54
2023-02-09T04:55:03.628Z,62.64
2023-02-09T04:57:59.841Z,62.48
2023-02-09T05:00:29.382Z,61.86
2023-02-09T05:02:57.272Z,61.01
2023-02-09T05:05:26.744Z,61.25
2023-02-09T05:07:54.541Z,60.67
2023-02-09T05:10:22.404Z,61.37
2023-02-09T05:12:53.511Z,61.57
2023-02-09T05:15:21.576Z,61.30
2023-02-09T05:17:51.344Z,60.70
2023-02-09T05:20:21.325Z,61.47
2023-02-09T05:22:54.544Z,60.86
2023-02-09T05:25:27.787Z,60.53
2023-02-09T05:27:55.722Z,61.18
2023-02-09T05:30:23.721Z,61.00
2023-02-09T05:32:57.434Z,61.90
2023-02-09T05:35:25.601Z,61.62
2023-02-09T05:37:55.104Z,60.88
2023-02-09T05:40:26.502Z,59.55
2023-02-09T05:42:55.028Z,61.08
2023-02-09T05:45:23.597Z,61.89
2023-02-09T05:47:51.395Z,61.96
2023-02-09T05:50:26.810Z,62.48
2023-02-09T05:52:59.263Z,62.44
2023-02-09T05:55:27.298Z,63.50
2023-02-09T05:57:57.591Z,63.37
2023-02-09T06:00:29.954Z,63.08
2023-02-09T06:02:58.743Z,64.05
2023-02-09T06:05:27.172Z,64.26
2023-02-09T06:08:01.362Z,64.51
2023-02-09T06:10:31.858Z,65.59
2023-02-09T06:12:59.673Z,64.45
2023-02-09T06:15:31.026Z,64.63
2023-02-09T06:17:58.972Z,64.10
2023-02-09T06:20:29.552Z,64.64
2023-02-09T06:23:01.946Z,62.47
2023-02-09T06:25:32.771Z,64.88
2023-02-09T06:28:00.913Z,64.66
2023-02-09T06:30:32.881Z,64.80
2023-02-09T06:33:00.968Z,64.03
2023-02-09T06:35:28.843Z,62.96
2023-02-09T06:37:59.280Z,63.82
2023-02-09T06:40:27.386Z,64.82
2023-02-09T06:42:55.519Z,65.32
2023-02-09T06:45:26.827Z,65.13
2023-02-09T06:47:54.696Z,65.60
2023-02-09T06:50:22.771Z,64.81
2023-02-09T06:52:53.310Z,66.22
2023-02-09T06:55:26.445Z,64.70
2023-02-09T06:57:55.708Z,65.61
2023-02-09T07:00:24.579Z,66.28
2023-02-09T07:02:53.244Z,65.12
2023-02-09T07:05:23.112Z,64.12
2023-02-09T07:07:56.938Z,64.05
2023-02-09T07:10:27.004Z,64.72
2023-02-09T07:12:55.197Z,62.17
2023-02-09T07:15:26.924Z,62.09
2023-02-09T07:17:54.908Z,61.30
2023-02-09T07:20:22.851Z,61.75
2023-02-09T07:22:50.901Z,60.76
2023-02-09T07:25:20.646Z,62.16
2023-02-09T07:27:50.115Z,61.19
2023-02-09T07:30:19.352Z,60.36
2023-02-09T07:32:48.220Z,60.47
2023-02-09T07:35:19.269Z,62.70
2023-02-09T07:37:51.563Z,61.57
2023-02-09T07:40:19.955Z,61.47
2023-02-09T07:42:49.250Z,60.82
2023-02-09T07:45:17.456Z,62.70
2023-02-09T07:47:46.668Z,64.22
2023-02-09T07:50:19.093Z,61.41
2023-02-09T07:52:48.020Z,62.57
2023-02-09T07:55:15.950Z,61.98
2023-02-09T07:57:44.763Z,61.58
2023-02-09T08:00:18.524Z,62.41
2023-02-09T08:02:47.112Z,64.08
2023-02-09T08:05:19.461Z,64.09
2023-02-09T08:07:49.655Z,63.54
2023-02-09T08:10:22.331Z,60.66
2023-02-09T08:13:02.554Z,60.91
2023-02-09T08:15:38.053Z,60.80
2023-02-09T08:18:13.024Z,62.08
2023-02-09T08:20:41.312Z,62.33
2023-02-09T08:23:11.730Z,64.66
2023-02-09T08:25:41.868Z,63.04
2023-02-09T08:28:09.978Z,62.36
2023-02-09T08:30:43.023Z,60.94
2023-02-09T08:33:10.964Z,60.75
2023-02-09T08:35:39.344Z,60.02
2023-02-09T08:38:12.059Z,61.61
2023-02-09T08:40:44.023Z,62.06
2023-02-09T08:43:12.356Z,63.19
2023-02-09T08:45:43.360Z,61.57
2023-02-09T08:48:11.643Z,61.04
2023-02-09T08:50:46.521Z,62.50
2023-02-09T08:53:17.422Z,62.72
2023-02-09T08:55:45.877Z,61.01
2023-02-09T08:58:14.275Z,59.91
2023-02-09T09:00:43.946Z,59.50
2023-02-09T09:03:11.756Z,59.02
2023-02-09T09:05:42.540Z,58.43
2023-02-09T09:08:12.979Z,57.17
2023-02-09T09:10:46.551Z,59.10
2023-02-09T09:13:15.674Z,58.22
2023-02-09T09:15:50.784Z,57.42
2023-02-09T09:18:18.860Z,57.68
2023-02-09T09:20:50.725Z,57.04
2023-02-09T09:23:18.748Z,57.17
2023-02-09T09:25:46.845Z,56.72
2023-02-09T09:28:16.140Z,56.39
2023-02-09T09:30:45.603Z,55.99
2023-02-09T09:33:13.583Z,54.59
2023-02-09T09:35:44.205Z,54.06
2023-02-09T09:38:14.747Z,55.33
2023-02-09T09:40:46.408Z,55.34
2023-02-09T09:43:22.242Z,55.32
2023-02-09T09:45:51.661Z,54.63
2023-02-09T09:48:25.231Z,54.74
2023-02-09T09:50:56.787Z,53.28
2023-02-09T09:53:31.878Z,53.79
2023-02-09T09:56:02.712Z,54.32
2023-02-09T09:58:36.307Z,54.60
2023-02-09T10:01:13.297Z,54.22
2023-02-09T10:03:50.860Z,54.50
2023-02-09T10:06:21.022Z,54.16
2023-02-09T10:08:53.500Z,53.36
2023-02-09T10:11:26.951Z,53.87
2023-02-09T10:13:59.051Z,53.27
2023-02-09T10:16:34.834Z,51.63
2023-02-09T10:19:03.852Z,51.80
2023-02-09T10:21:37.437Z,51.38
2023-02-09T10:24:13.029Z,51.53
2023-02-09T10:26:43.043Z,51.43
2023-02-09T10:29:24.674Z,51.41
2023-02-09T10:31:58.969Z,50.87
2023-02-09T10:34:31.708Z,50.45
2023-02-09T10:37:18.495Z,49.68
2023-02-09T10:39:49.076Z,48.90
2023-02-09T10:42:26.134Z,48.66
2023-02-09T10:44:58.142Z,49.48
2023-02-09T10:47:33.085Z,50.84
2023-02-09T10:50:18.145Z,50.36
2023-02-09T10:52:58.676Z,51.91
2023-02-09T10:55:31.637Z,51.84
2023-02-09T10:58:17.830Z,52.56
2023-02-09T11:00:57.157Z,52.25
2023-02-09T11:03:26.520Z,51.89
2023-02-09T11:06:03.576Z,51.24
2023-02-09T11:08:45.944Z,52.35
2023-02-09T11:11:24.547Z,50.23
2023-02-09T11:13:54.054Z,48.70
2023-02-09T11:16:59.849Z,48.65
2023-02-09T11:19:50.082Z,49.02
2023-02-09T11:22:21.586Z,51.66
2023-02-09T11:25:02.767Z,49.45
2023-02-09T11:27:44.910Z,49.28
2023-02-09T11:30:21.816Z,48.39
2023-02-09T11:32:53.402Z,49.46
2023-02-09T11:35:25.953Z,48.68
2023-02-09T11:37:57.419Z,49.21
2023-02-09T11:40:29.501Z,49.88
2023-02-09T11:43:04.091Z,47.51
2023-02-09T11:45:41.761Z,47.57
2023-02-09T11:48:12.830Z,47.42
2023-02-09T11:50:53.975Z,49.33
2023-02-09T11:53:30.952Z,48.15
2023-02-09T11:56:00.541Z,47.77
2023-02-09T11:58:47.549Z,45.56
2023-02-09T12:01:28.083Z,46.19
2023-02-09T12:04:11.298Z,46.05
2023-02-09T12:06:46.610Z,47.51
2023-02-09T12:09:24.987Z,46.15
2023-02-09T12:12:04.215Z,45.88
2023-02-09T12:14:45.020Z,46.11
2023-02-09T12:17:15.307Z,44.34
2023-02-09T12:19:50.558Z,43.60
2023-02-09T12:22:45.290Z,43.05
2023-02-09T12:25:35.787Z,42.06
2023-02-09T12:28:42.292Z,43.45
2023-02-09T12:31:14.019Z,43.23
2023-02-09T12:34:12.502Z,43.66
2023-02-09T12:37:01.986Z,43.53
2023-02-09T12:39:34.880Z,43.21
2023-02-09T12:42:29.356Z,42.16
2023-02-09T12:44:59.249Z,43.46
2023-02-09T12:47:48.149Z,43.01
2023-02-09T12:50:49.525Z,42.09
2023-02-09T12:53:45.378Z,43.15
2023-02-09T12:56:30.252Z,44.18
2023-02-09T12:59:14.540Z,42.93
2023-02-09T13:02:18.816Z,41.49
2023-02-09T13:04:55.588Z,41.09
2023-02-09T13:07:31.053Z,40.79
2023-02-09T13:10:00.267Z,43.40
2023-02-09T13:12:38.293Z,43.93
2023-02-09T13:15:13.958Z,47.96
2023-02-09T13:17:48.612Z,47.54
2023-02-09T13:20:48.885Z,48.41
2023-02-09T13:23:30.723Z,49.12
2023-02-09T13:26:20.029Z,48.98
2023-02-09T13:28:49.423Z,48.33
2023-02-09T13:31:23.930Z,49.01
2023-02-09T13:34:04.325Z,47.82
2023-02-09T13:36:43.223Z,48.21
2023-02-09T13:39:23.496Z,47.97
2023-02-09T13:41:55.416Z,48.77
2023-02-09T13:44:35.184Z,47.69
2023-02-09T13:47:08.339Z,49.53
2023-02-09T13:49:41.107Z,47.28
2023-02-09T13:52:12.242Z,46.77
2023-02-09T13:54:40.824Z,47.64
2023-02-09T13:57:16.698Z,47.60
2023-02-09T13:59:45.988Z,45.50
2023-02-09T14:02:22.627Z,45.34
2023-02-09T14:04:56.334Z,45.06
2023-02-09T14:07:34.796Z,46.61
2023-02-09T14:10:08.437Z,46.17
2023-02-09T14:12:55.828Z,46.64
2023-02-09T14:15:48.849Z,45.81
2023-02-09T14:18:39.068Z,46.23
2023-02-09T14:21:20.164Z,45.90
2023-02-09T14:24:15.142Z,45.17
2023-02-09T14:26:50.502Z,45.43
2023-02-09T14:29:20.657Z,44.32
2023-02-09T14:31:54.869Z,45.24
2023-02-09T14:34:33.129Z,44.85
2023-02-09T14:37:17.484Z,43.39
2023-02-09T14:39:56.825Z,43.40
2023-02-09T14:42:24.895Z,41.81
2023-02-09T14:44:57.861Z,41.40
2023-02-09T14:47:41.246Z,42.02
2023-02-09T14:50:12.794Z,43.87
2023-02-09T14:52:50.662Z,43.31
2023-02-09T14:55:21.016Z,44.37
2023-02-09T14:57:50.493Z,45.90
2023-02-09T15:00:24.546Z,46.96
2023-02-09T15:02:54.740Z,48.03
2023-02-09T15:05:28.463Z,47.19
2023-02-09T15:07:59.028Z,47.30
2023-02-09T15:10:30.565Z,47.48
2023-02-09T15:13:04.087Z,46.88
2023-02-09T15:15:33.218Z,47.07
2023-02-09T15:18:02.581Z,46.22
2023-02-09T15:20:31.456Z,47.60
2023-02-09T15:23:02.376Z,48.29
2023-02-09T15:25:30.607Z,47.93
2023-02-09T15:27:59.649Z,48.40
2023-02-09T15:30:30.822Z,47.95
2023-02-09T15:33:08.528Z,48.28
2023-02-09T15:35:37.646Z,49.08
2023-02-09T15:38:05.669Z,49.70
2023-02-09T15:40:52.838Z,49.48
2023-02-09T15:43:39.686Z,49.74
2023-02-09T15:46:26.449Z,49.63
2023-02-09T15:48:57.790Z,47.85
2023-02-09T15:51:29.973Z,47.62
2023-02-09T15:54:00.154Z,46.91
2023-02-09T15:56:30.337Z,47.94
2023-02-09T15:59:03.995Z,46.88
2023-02-09T16:01:42.106Z,46.75
2023-02-09T16:04:15.074Z,46.95
2023-02-09T16:06:49.651Z,47.23
2023-02-09T16:09:19.626Z,47.54
2023-02-09T16:11:50.542Z,47.12
2023-02-09T16:14:21.764Z,47.65
2023-02-09T16:16:50.240Z,47.48
2023-02-09T16:19:19.733Z,48.33
2023-02-09T16:21:51.887Z,47.56
2023-02-09T16:24:24.749Z,47.55
2023-02-09T16:26:55.641Z,47.10
2023-02-09T16:29:26.025Z,48.02
2023-02-09T16:31:54.860Z,48.74
2023-02-09T16:34:24.067Z,48.32
2023-02-09T16:36:53.176Z,48.77
2023-02-09T16:39:22.569Z,49.51
2023-02-09T16:41:53.724Z,48.55
2023-02-09T16:44:23.307Z,49.15
2023-02-09T16:46:53.504Z,49.83
2023-02-09T16:49:38.030Z,49.42
2023-02-09T16:52:11.400Z,49.22
2023-02-09T16:54:48.112Z,50.06
2023-02-09T16:57:26.659Z,49.91
2023-02-09T16:59:55.094Z,49.67
2023-02-09T17:02:38.536Z,50.47
2023-02-09T17:05:19.153Z,50.08
2023-02-09T17:07:54.489Z,50.42
2023-02-09T17:10:25.893Z,50.60
2023-02-09T17:12:56.852Z,50.85
2023-02-09T17:15:31.444Z,50.72
2023-02-09T17:18:04.954Z,50.17
2023-02-09T17:20:38.527Z,51.91
2023-02-09T17:23:08.290Z,50.23
2023-02-09T17:25:36.606Z,52.11
2023-02-09T17:28:04.636Z,51.59
2023-02-09T17:30:33.797Z,52.05
2023-02-09T17:33:05.687Z,51.18
2023-02-09T17:36:07.198Z,53.06
2023-02-09T17:38:29.102Z,52.20
2023-02-09T17:41:02.497Z,53.38
2023-02-09T17:43:31.472Z,54.02
2023-02-09T17:45:59.954Z,53.65
2023-02-09T17:48:28.090Z,52.68
2023-02-09T17:51:00.269Z,53.63
2023-02-09T17:53:30.397Z,53.73
2023-02-09T17:56:04.148Z,52.63
2023-02-09T17:58:32.189Z,52.35
2023-02-09T18:01:02.962Z,51.94
2023-02-09T18:03:31.202Z,52.50
2023-02-09T18:06:03.091Z,52.23
2023-02-09T18:08:31.208Z,53.99
2023-02-09T18:11:00.166Z,53.73
2023-02-09T18:13:28.575Z,53.20
2023-02-09T18:16:01.991Z,54.63
2023-02-09T18:18:36.608Z,53.82
2023-02-09T18:21:07.943Z,55.98
2023-02-09T18:23:36.070Z,55.84
2023-02-09T18:26:09.049Z,54.63
2023-02-09T18:28:36.992Z,53.79
2023-02-09T18:31:06.437Z,53.47
2023-02-09T18:33:34.917Z,53.67
2023-02-09T18:36:03.417Z,53.75
2023-02-09T18:38:41.412Z,55.64
2023-02-09T18:41:12.006Z,55.84
2023-02-09T18:43:40.319Z,54.21
2023-02-09T18:46:12.095Z,55.38
2023-02-09T18:48:41.194Z,55.40
2023-02-09T18:51:09.108Z,55.33
2023-02-09T18:53:40.141Z,56.35
2023-02-09T18:56:08.126Z,56.21
2023-02-09T18:58:36.716Z,56.01
2023-02-09T19:01:04.850Z,57.92
2023-02-09T19:03:37.976Z,57.03
2023-02-09T19:06:08.980Z,57.05
2023-02-09T19:08:38.417Z,57.23
2023-02-09T19:11:09.255Z,55.38
2023-02-09T19:13:45.996Z,55.46
2023-02-09T19:16:18.046Z,55.57
2023-02-09T19:18:50.150Z,56.73
2023-02-09T19:21:22.000Z,58.19
2023-02-09T19:23:53.997Z,58.80
2023-02-09T19:26:25.159Z,58.63
2023-02-09T19:28:58.045Z,58.39
2023-02-09T19:31:27.762Z,58.82
2023-02-09T19:33:58.452Z,57.32
2023-02-09T19:36:31.642Z,57.34
2023-02-09T19:39:04.675Z,58.69
2023-02-09T19:41:32.789Z,58.81
2023-02-09T19:44:07.315Z,59.72
2023-02-09T19:46:35.338Z,59.89
2023-02-09T19:49:06.858Z,60.36
2023-02-09T19:51:36.983Z,60.04
2023-02-09T19:54:06.760Z,60.64
2023-02-09T19:56:37.303Z,61.30
2023-02-09T19:59:07.699Z,60.76
2023-02-09T20:01:40.510Z,60.62
2023-02-09T20:04:08.405Z,60.77
2023-02-09T20:06:38.456Z,60.84
2023-02-09T20:09:07.628Z,60.60
2023-02-09T20:11:40.495Z,61.14
2023-02-09T20:14:08.398Z,61.17
2023-02-09T20:16:39.361Z,60.91
2023-02-09T20:19:10.612Z,60.95
2023-02-09T20:21:38.643Z,61.52
2023-02-09T20:24:11.628Z,61.28
2023-02-09T20:26:42.036Z,61.61
2023-02-09T20:29:11.224Z,62.13
2023-02-09T20:31:43.195Z,61.86
2023-02-09T20:34:15.967Z,60.91
2023-02-09T20:36:48.149Z,61.94
2023-02-09T20:39:23.539Z,60.91
2023-02-09T20:42:13.675Z,60.52
2023-02-09T20:44:58.864Z,60.04
2023-02-09T20:47:27.179Z,60.20
2023-02-09T20:49:57.862Z,60.14
2023-02-09T20:52:28.589Z,59.82
2023-02-09T20:54:58.606Z,59.67
2023-02-09T20:57:30.666Z,60.68
2023-02-09T21:00:03.006Z,60.33
2023-02-09T21:02:32.428Z,60.00
2023-02-09T21:05:00.335Z,60.62
2023-02-09T21:07:28.090Z,60.37
2023-02-09T21:09:57.293Z,59.62
2023-02-09T21:12:25.724Z,59.70
2023-02-09T21:14:56.587Z,60.18
2023-02-09T21:17:31.419Z,60.97
2023-02-09T21:19:59.236Z,60.91
2023-02-09T21:22:29.991Z,60.13
2023-02-09T21:25:00.653Z,60.62
2023-02-09T21:27:30.413Z,60.74
2023-02-09T21:30:01.415Z,60.56
2023-02-09T21:32:33.982Z,59.59
2023-02-09T21:35:03.891Z,61.11
2023-02-09T21:37:32.593Z,60.28
2023-02-09T21:40:07.673Z,60.63
2023-02-09T21:42:39.497Z,61.66
2023-02-09T21:45:10.959Z,61.22
2023-02-09T21:47:40.687Z,61.78
2023-02-09T21:50:11.922Z,60.75
2023-02-09T21:52:39.757Z,60.92
2023-02-09T21:55:09.492Z,60.70
2023-02-09T21:57:40.109Z,61.43
2023-02-09T22:00:09.803Z,62.21
2023-02-09T22:02:41.821Z,62.71
2023-02-09T22:05:09.800Z,61.76
2023-02-09T22:07:43.343Z,61.84
2023-02-09T22:10:15.833Z,62.32
2023-02-09T22:12:44.858Z,62.69
2023-02-09T22:15:18.022Z,62.51
2023-02-09T22:17:47.903Z,61.37
2023-02-09T22:20:18.600Z,61.44
2023-02-09T22:22:49.602Z,61.94
2023-02-09T22:25:22.756Z,62.31
2023-02-09T22:27:52.506Z,62.70
2023-02-09T22:30:23.486Z,62.67
2023-02-09T22:32:54.272Z,62.68
2023-02-09T22:35:23.339Z,61.84
2023-02-09T22:37:54.787Z,61.88
2023-02-09T22:40:23.997Z,61.05
2023-02-09T22:43:00.165Z,60.39
2023-02-09T22:45:31.212Z,61.66
2023-02-09T22:47:59.188Z,62.61
2023-02-09T22:50:29.105Z,61.22
2023-02-09T22:52:56.987Z,61.47
2023-02-09T22:55:27.366Z,61.07
2023-02-09T22:58:00.568Z,61.34
2023-02-09T23:00:28.438Z,60.94
2023-02-09T23:03:08.461Z,61.65
2023-02-09T23:05:38.877Z,61.90
2023-02-09T23:08:06.636Z,62.97
2023-02-09T23:10:35.812Z,62.15
2023-02-09T23:13:09.756Z,62.21
2023-02-09T23:15:51.661Z,62.28
2023-02-09T23:18:19.546Z,61.64
2023-02-09T23:20:52.066Z,62.10
2023-02-09T23:23:19.839Z,62.11
2023-02-09T23:25:54.427Z,62.10
2023-02-09T23:28:22.327Z,61.80
2023-02-09T23:30:51.880Z,62.61
2023-02-09T23:33:19.821Z,62.80
2023-02-09T23:35:56.200Z,62.36
2023-02-09T23:38:24.036Z,62.96
2023-02-09T23:40:59.364Z,62.60
2023-02-09T23:43:30.310Z,63.28
2023-02-09T23:46:04.048Z,62.84
2023-02-09T23:48:32.435Z,62.42
2023-02-09T23:51:02.166Z,63.77
2023-02-09T23:53:31.109Z,63.99
2023-02-09T23:56:03.840Z,64.74
2023-02-09T23:58:36.740Z,64.04
